Minot Air Force Base
KMIB : now visible

Airfield :











YOU CAN JOIN US ON...

 
LOGIN :

Register | Disclaimer

   EN    FR    IT 

 









Legend :    VFR   Marginal VFR   IFR   Intensive IFR   Very Intensive IFR
Visi :
Ceiling :
>= 8 km
>= 3000ft
5 to 8 km
1000 to 3000 ft
1500m to 5 km
500 to 1000 ft
800 to 1500m
200 to 500 ft
< 800m
< 200 ft
Symbols :   Thunderstorms  Fog  Heavy snow  Heavy precipitations  Wind > 20 kt






- Airport Elevation : 1667 ft


KMIB - Minot Air Force Base

CURRENT METAR :
  • 221206Z AUTO 06005KT 10SM SCT028 BKN033 OVC070 M03/M06 A3025 RMK AO2 SLP274 $

EXPIRED METARs :
  • 221156Z AUTO 04005KT 10SM OVC028 M03/M06 A3025 RMK AO2 SLP274 T10291059 11028 21032 52013 $
  • 221056Z AUTO 04004KT 10SM OVC030 M03/M05 A3023 RMK AO2 SLP266 T10301055 $
  • 221011Z AUTO 00000KT 10SM OVC030 M03/M06 A3022 RMK AO2 SLP263 $
  • 220956Z AUTO 07003KT 10SM OVC029 M03/M06 A3022 RMK AO2 SLP263 T10301058 $
  • 220936Z AUTO 08003KT 10SM OVC029 M03/M06 A3022 RMK AO2 SLP261 $

TAF AMD TAF KMIB
Valid from the 22 at 12:00 until the 23 at 15:00 UTC


221215Z 2212/2315 VRB06KT 9999 BKN030 620309 QNH3019INS
BECMG 2216/2217 36010G15KT 3200 -SN OVC010 620109 QNH3028INS
BECMG 2303/2304 33015G20KT 3200 -SN OVC035 620355 QNH3039INS
BECMG 2305/2306 33010KT 9999 NSW BKN045 620453 QNH3040INS
BECMG 2311/2312 29010KT 9999 SCT020 QNH3042INS TXM01/2220Z TNM04/2212Z
KZMP FIR / North America



MET'MAP, your aeronautical weather chart ! - Copyright ORBIFLY December 2007 - Disclaimer

ORBIFLY MET'MAP TEAM :

Programming & Development : Alexandra Zaïnal
Concept & original design : Baudouin d'Aumeries
Assistance for programming : Marc-Olivier Méhu
Technical & hardware support : Manuel Goepfert

Contact : metmap@orbifly.com




SOURCES & CREDITS :

   NOAA       Earth
Advisory